createdAt,value
2019-04-21T00:00:58.526Z,98262.51
2019-04-21T00:03:27.566Z,98257.84
2019-04-21T00:06:09.471Z,98257.53
2019-04-21T00:08:42.814Z,98244.05
2019-04-21T00:11:10.751Z,98249.11
2019-04-21T00:13:33.147Z,98242.11
2019-04-21T00:15:53.445Z,98240.69
2019-04-21T00:18:15.524Z,98243.25
2019-04-21T00:20:49.519Z,98238.44
2019-04-21T00:23:30.013Z,98231.34
2019-04-21T00:25:52.573Z,98225.27
2019-04-21T00:28:33.244Z,98214.97
2019-04-21T00:30:56.877Z,98218.77
2019-04-21T00:33:12.508Z,98213.31
2019-04-21T00:35:42.619Z,98213.81
2019-04-21T00:38:25.177Z,98208.11
2019-04-21T00:40:54.099Z,98204.01
2019-04-21T00:43:15.192Z,98201.69
2019-04-21T00:45:43.532Z,98202.53
2019-04-21T00:48:21.369Z,98197.68
2019-04-21T00:51:03.441Z,98206.05
2019-04-21T00:53:22.570Z,98201.50
2019-04-21T00:55:53.437Z,98201.53
2019-04-21T00:58:19.453Z,98206.66
2019-04-21T01:00:46.015Z,98203.55
2019-04-21T01:03:14.505Z,98204.50
2019-04-21T01:05:49.806Z,98206.45
2019-04-21T01:08:09.960Z,98207.80
2019-04-21T01:10:28.765Z,98203.57
2019-04-21T01:13:12.905Z,98204.52
2019-04-21T01:15:37.374Z,98202.09
2019-04-21T01:18:06.358Z,98197.90
2019-04-21T01:20:17.256Z,98203.13
2019-04-21T01:22:41.501Z,98193.86
2019-04-21T01:25:19.274Z,98200.44
2019-04-21T01:27:56.446Z,98199.24
2019-04-21T01:30:29.171Z,98199.47
2019-04-21T01:32:55.768Z,98193.51
2019-04-21T01:35:25.696Z,98195.52
2019-04-21T01:38:10.943Z,98188.66
2019-04-21T01:42:51.111Z,98188.78
2019-04-21T01:45:14.737Z,98180.59
2019-04-21T01:47:40.850Z,98182.59
2019-04-21T01:50:05.749Z,98186.83
2019-04-21T01:52:54.638Z,98185.84
2019-04-21T01:55:13.795Z,98175.28
2019-04-21T01:57:37.783Z,98174.67
2019-04-21T02:00:00.486Z,98168.41
2019-04-21T02:02:44.823Z,98168.75
2019-04-21T02:05:10.549Z,98161.86
2019-04-21T02:07:40.290Z,98163.03
2019-04-21T02:10:12.821Z,98164.00
2019-04-21T02:12:36.142Z,98157.95
2019-04-21T02:15:04.825Z,98158.45
2019-04-21T02:17:31.054Z,98154.86
2019-04-21T02:19:57.366Z,98149.08
2019-04-21T02:22:43.107Z,98156.64
2019-04-21T02:25:01.016Z,98149.54
2019-04-21T02:27:23.396Z,98148.06
2019-04-21T02:29:55.248Z,98148.66
2019-04-21T02:32:42.100Z,98138.32
2019-04-21T02:35:18.730Z,98146.37
2019-04-21T02:40:04.973Z,98146.12
2019-04-21T02:42:31.528Z,98136.59
2019-04-21T02:44:55.452Z,98143.69
2019-04-21T02:47:37.981Z,98140.87
2019-04-21T02:50:00.268Z,98143.19
2019-04-21T02:55:02.700Z,98139.88
2019-04-21T02:57:19.034Z,98136.55
2019-04-21T02:59:49.688Z,98137.75
2019-04-21T03:02:14.510Z,98139.08
2019-04-21T03:04:42.250Z,98136.30
2019-04-21T03:07:14.887Z,98137.28
2019-04-21T03:12:11.187Z,98139.41
2019-04-21T03:14:46.430Z,98138.28
2019-04-21T03:17:09.113Z,98135.30
2019-04-21T03:22:07.138Z,98140.75
2019-04-21T03:24:59.061Z,98132.38
2019-04-21T03:42:02.160Z,98107.06
2019-04-21T03:44:26.700Z,98105.59
2019-04-21T03:47:08.452Z,98107.75
2019-04-21T03:49:28.999Z,98109.39
2019-04-21T03:51:47.539Z,98104.46
2019-04-21T03:57:10.568Z,98103.98
2019-04-21T03:59:09.510Z,98105.47
2019-04-21T04:01:41.070Z,98103.82
2019-04-21T04:04:22.356Z,98105.14
2019-04-21T04:06:43.071Z,98098.22
2019-04-21T04:14:15.830Z,98115.63
2019-04-21T04:16:41.267Z,98105.12
2019-04-21T04:18:57.743Z,98111.67
2019-04-21T04:26:33.432Z,98110.21
2019-04-21T04:28:58.026Z,98102.66
2019-04-21T04:31:30.420Z,98106.92
2019-04-21T04:36:46.674Z,98109.39
2019-04-21T04:39:04.771Z,98106.95
2019-04-21T04:41:24.449Z,98109.55
2019-04-21T04:43:54.673Z,98111.36
2019-04-21T04:46:17.821Z,98104.63
2019-04-21T04:48:54.966Z,98101.13
2019-04-21T04:51:23.006Z,98105.22
2019-04-21T04:59:20.210Z,98095.50
2019-04-21T05:14:02.668Z,98099.58
2019-04-21T05:16:37.870Z,98102.09
2019-04-21T05:19:06.347Z,98098.83
2019-04-21T05:21:30.653Z,98095.03
2019-04-21T05:23:50.093Z,98088.88
2019-04-21T05:26:10.972Z,98094.58
2019-04-21T05:28:40.691Z,98094.58
2019-04-21T05:31:19.836Z,98091.41
2019-04-21T05:33:57.736Z,98091.62
2019-04-21T05:36:20.444Z,98085.69
2019-04-21T05:38:47.786Z,98088.08
2019-04-21T05:41:11.055Z,98086.95
2019-04-21T05:43:51.442Z,98085.22
2019-04-21T05:46:25.345Z,98088.61
2019-04-21T05:48:52.608Z,98083.41
2019-04-21T05:51:13.129Z,98071.13
2019-04-21T05:54:03.540Z,98078.64
2019-04-21T05:56:33.631Z,98074.81
2019-04-21T05:58:58.139Z,98076.41
2019-04-21T06:01:34.516Z,98075.53
2019-04-21T06:04:05.511Z,98074.20
2019-04-21T06:06:34.051Z,98073.59
2019-04-21T06:09:11.065Z,98075.73
2019-04-21T06:11:35.965Z,98068.59
2019-04-21T06:14:08.382Z,98061.83
2019-04-21T06:16:46.356Z,98060.52
2019-04-21T06:19:11.486Z,98064.40
2019-04-21T06:21:38.865Z,98068.88
2019-04-21T06:24:15.673Z,98067.39
2019-04-21T06:27:03.207Z,98065.50
2019-04-21T06:29:21.559Z,98067.59
2019-04-21T06:32:12.732Z,98067.01
2019-04-21T06:34:28.905Z,98066.00
2019-04-21T06:41:49.257Z,98065.55
2019-04-21T06:44:16.863Z,98066.48
2019-04-21T06:46:54.818Z,98060.91
2019-04-21T06:49:15.687Z,98059.15
2019-04-21T06:51:48.209Z,98063.02
2019-04-21T06:54:23.891Z,98057.53
2019-04-21T06:57:00.277Z,98054.78
2019-04-21T07:02:22.505Z,98049.91
2019-04-21T07:04:54.842Z,98041.73
2019-04-21T07:07:12.935Z,98045.60
2019-04-21T07:09:35.710Z,98040.84
2019-04-21T07:12:07.421Z,98041.06
2019-04-21T07:14:34.567Z,98038.94
2019-04-21T07:17:11.375Z,98044.02
2019-04-21T07:19:36.656Z,98037.31
2019-04-21T07:22:04.777Z,98038.40
2019-04-21T07:24:31.888Z,98038.38
2019-04-21T07:27:03.895Z,98038.73
2019-04-21T07:29:32.570Z,98032.05
2019-04-21T07:31:58.717Z,98029.38
2019-04-21T07:34:28.751Z,98028.55
2019-04-21T07:36:54.834Z,98022.16
2019-04-21T07:39:18.004Z,98026.65
2019-04-21T07:41:43.829Z,98019.91
2019-04-21T07:44:08.745Z,98028.48
2019-04-21T07:46:38.630Z,98019.28
2019-04-21T07:49:12.804Z,98016.64
2019-04-21T07:51:51.907Z,98014.47
2019-04-21T07:54:17.174Z,98010.48
2019-04-21T07:56:28.762Z,98010.39
2019-04-21T07:59:18.905Z,98012.09
2019-04-21T08:01:35.635Z,98008.87
2019-04-21T08:04:14.727Z,98010.75
2019-04-21T08:06:43.801Z,98003.70
2019-04-21T08:09:10.330Z,98004.10
2019-04-21T08:11:32.675Z,98001.64
2019-04-21T08:14:07.152Z,97996.66
2019-04-21T08:16:36.831Z,97988.09
2019-04-21T08:19:10.008Z,97992.25
2019-04-21T08:21:40.532Z,97991.24
2019-04-21T08:24:13.195Z,97983.64
2019-04-21T08:26:36.898Z,97987.25
2019-04-21T08:32:06.840Z,97984.91
2019-04-21T08:34:28.461Z,97987.45
2019-04-21T08:36:51.657Z,97986.41
2019-04-21T08:42:26.745Z,97984.95
2019-04-21T08:44:52.975Z,97984.77
2019-04-21T08:47:30.046Z,97984.62
2019-04-21T08:49:57.235Z,97988.16
2019-04-21T08:52:42.739Z,97978.09
2019-04-21T08:54:56.058Z,97980.33
2019-04-21T08:57:35.691Z,97979.66
2019-04-21T09:00:04.890Z,97975.67
2019-04-21T09:02:35.143Z,97974.47
2019-04-21T09:05:03.414Z,97972.17
2019-04-21T09:07:36.313Z,97975.17
2019-04-21T09:09:57.775Z,97967.59
2019-04-21T09:12:29.097Z,97961.03
2019-04-21T09:14:55.301Z,97955.80
2019-04-21T09:17:22.067Z,97953.43
2019-04-21T09:20:04.097Z,97957.61
2019-04-21T09:22:17.416Z,97952.80
2019-04-21T09:24:51.633Z,97947.92
2019-04-21T09:27:14.208Z,97949.94
2019-04-21T09:29:37.962Z,97940.83
2019-04-21T09:31:59.614Z,97944.86
2019-04-21T09:34:33.225Z,97932.19
2019-04-21T09:37:10.489Z,97938.41
2019-04-21T09:39:25.653Z,97935.16
2019-04-21T09:41:54.531Z,97927.34
2019-04-21T09:44:25.423Z,97926.28
2019-04-21T09:46:52.382Z,97924.93
2019-04-21T09:49:22.056Z,97922.15
2019-04-21T09:51:44.323Z,97922.19
2019-04-21T09:54:20.385Z,97909.75
2019-04-21T09:56:48.391Z,97911.34
2019-04-21T09:59:17.980Z,97906.72
2019-04-21T10:01:54.991Z,97908.77
2019-04-21T10:04:12.004Z,97908.23
2019-04-21T10:06:39.588Z,97903.83
2019-04-21T10:09:09.531Z,97906.45
2019-04-21T10:11:37.758Z,97897.11
2019-04-21T10:14:05.249Z,97903.98
2019-04-21T10:16:34.331Z,97897.95
2019-04-21T10:19:04.527Z,97897.81
2019-04-21T10:21:31.913Z,97893.23
2019-04-21T10:23:59.855Z,97880.13
2019-04-21T10:26:26.815Z,97884.83
2019-04-21T10:28:58.968Z,97878.80
2019-04-21T10:31:24.842Z,97869.95
2019-04-21T10:33:54.559Z,97874.59
2019-04-21T10:36:24.868Z,97868.83
2019-04-21T10:38:53.576Z,97863.34
2019-04-21T10:41:21.785Z,97864.80
2019-04-21T10:43:51.400Z,97860.89
2019-04-21T10:46:22.792Z,97860.70
2019-04-21T10:48:53.083Z,97859.21
2019-04-21T10:51:21.227Z,97856.09
2019-04-21T10:53:52.470Z,97845.63
2019-04-21T10:56:27.227Z,97844.34
2019-04-21T10:58:47.396Z,97845.27
2019-04-21T11:01:14.223Z,97845.96
2019-04-21T11:03:42.603Z,97843.92
2019-04-21T11:06:10.660Z,97835.86
2019-04-21T11:08:41.551Z,97830.21
2019-04-21T11:11:08.134Z,97824.73
2019-04-21T11:13:34.857Z,97819.75
2019-04-21T11:16:05.388Z,97824.02
2019-04-21T11:18:32.055Z,97822.67
2019-04-21T11:21:00.909Z,97818.23
2019-04-21T11:23:29.016Z,97816.14
2019-04-21T11:25:55.837Z,97815.19
2019-04-21T11:28:22.987Z,97813.00
2019-04-21T11:30:53.083Z,97814.86
2019-04-21T11:33:22.968Z,97810.14
2019-04-21T11:35:53.170Z,97800.83
2019-04-21T11:38:26.635Z,97801.58
2019-04-21T11:40:55.923Z,97801.38
2019-04-21T11:43:25.678Z,97805.58
2019-04-21T11:45:54.840Z,97801.23
2019-04-21T11:48:24.239Z,97798.56
2019-04-21T11:50:50.983Z,97794.73
2019-04-21T11:53:18.940Z,97792.66
2019-04-21T11:55:50.126Z,97789.41
2019-04-21T11:58:16.082Z,97792.33
2019-04-21T12:00:42.509Z,97784.88
2019-04-21T12:03:10.875Z,97784.51
2019-04-21T12:05:39.502Z,97780.12
2019-04-21T12:08:20.768Z,97781.26
2019-04-21T12:10:41.850Z,97782.58
2019-04-21T12:13:12.071Z,97781.56
2019-04-21T12:15:39.205Z,97774.53
2019-04-21T12:18:06.455Z,97766.69
2019-04-21T12:20:35.420Z,97777.53
2019-04-21T12:23:07.191Z,97765.70
2019-04-21T12:25:34.703Z,97758.13
2019-04-21T12:28:01.771Z,97763.11
2019-04-21T12:30:29.442Z,97763.80
2019-04-21T12:33:00.198Z,97757.16
2019-04-21T12:35:30.086Z,97751.34
2019-04-21T12:38:00.603Z,97752.71
2019-04-21T12:40:30.646Z,97745.47
2019-04-21T12:43:00.964Z,97749.44
2019-04-21T12:45:31.626Z,97732.38
2019-04-21T12:48:00.034Z,97741.33
2019-04-21T12:50:29.985Z,97740.73
2019-04-21T12:53:01.363Z,97726.03
2019-04-21T12:55:35.153Z,97730.18
2019-04-21T12:58:01.442Z,97719.02
2019-04-21T13:00:31.235Z,97716.02
2019-04-21T13:03:01.548Z,97711.64
2019-04-21T13:05:31.548Z,97710.58
2019-04-21T13:08:03.679Z,97702.44
2019-04-21T13:10:31.828Z,97695.94
2019-04-21T13:12:59.998Z,97698.64
2019-04-21T13:15:31.328Z,97695.67
2019-04-21T13:18:01.023Z,97687.34
2019-04-21T13:20:29.651Z,97681.64
2019-04-21T13:22:57.795Z,97692.02
2019-04-21T13:25:27.794Z,97682.91
2019-04-21T13:27:54.459Z,97679.98
2019-04-21T13:33:09.223Z,97674.95
2019-04-21T13:35:39.025Z,97673.19
2019-04-21T13:38:17.265Z,97667.75
2019-04-21T13:40:53.402Z,97665.52
2019-04-21T13:43:08.287Z,97661.87
2019-04-21T13:45:34.288Z,97657.95
2019-04-21T13:48:10.614Z,97656.80
2019-04-21T13:50:37.291Z,97648.31
2019-04-21T13:53:06.846Z,97646.87
2019-04-21T13:55:36.906Z,97644.17
2019-04-21T13:58:04.288Z,97656.27
2019-04-21T14:00:35.803Z,97652.13
2019-04-21T14:03:07.019Z,97645.12
2019-04-21T14:05:33.172Z,97638.89
2019-04-21T14:08:01.040Z,97636.14
2019-04-21T14:10:29.218Z,97629.30
2019-04-21T14:12:56.374Z,97628.20
2019-04-21T14:15:24.620Z,97622.28
2019-04-21T14:17:53.054Z,97614.87
2019-04-21T14:20:22.374Z,97619.66
2019-04-21T14:22:49.701Z,97617.22
2019-04-21T14:25:19.640Z,97612.89
2019-04-21T14:27:49.962Z,97606.73
2019-04-21T14:30:18.575Z,97607.78
2019-04-21T14:32:44.790Z,97610.82
2019-04-21T14:38:00.519Z,97600.87
2019-04-21T14:40:31.356Z,97612.05
2019-04-21T14:42:56.282Z,97609.70
2019-04-21T14:45:24.982Z,97601.48
2019-04-21T14:47:54.155Z,97596.83
2019-04-21T14:50:22.142Z,97591.27
2019-04-21T14:52:50.645Z,97596.08
2019-04-21T14:55:20.826Z,97594.48
2019-04-21T14:57:51.679Z,97585.72
2019-04-21T15:00:20.938Z,97581.88
2019-04-21T15:02:51.816Z,97589.01
2019-04-21T15:05:21.791Z,97586.02
2019-04-21T15:07:49.029Z,97581.94
2019-04-21T15:10:23.425Z,97586.66
2019-04-21T15:12:47.758Z,97581.19
2019-04-21T15:15:18.093Z,97578.74
2019-04-21T15:17:47.646Z,97579.70
2019-04-21T15:20:17.789Z,97578.40
2019-04-21T15:22:50.289Z,97578.78
2019-04-21T15:28:09.615Z,97574.50
2019-04-21T15:30:36.584Z,97572.80
2019-04-21T15:33:04.643Z,97580.58
2019-04-21T15:35:40.652Z,97574.19
2019-04-21T15:38:09.847Z,97568.17
2019-04-21T15:40:50.543Z,97567.55
2019-04-21T15:43:10.591Z,97573.50
2019-04-21T15:45:42.389Z,97565.18
2019-04-21T15:48:09.734Z,97561.87
2019-04-21T15:50:44.231Z,97548.93
2019-04-21T15:53:09.716Z,97543.79
2019-04-21T15:55:38.997Z,97545.70
2019-04-21T15:58:08.499Z,97549.95
2019-04-21T16:00:36.348Z,97544.54
2019-04-21T16:03:06.821Z,97549.16
2019-04-21T16:05:35.178Z,97542.49
2019-04-21T16:08:02.194Z,97532.31
2019-04-21T16:10:56.653Z,97534.09
2019-04-21T16:13:21.665Z,97528.59
2019-04-21T16:15:48.517Z,97531.63
2019-04-21T16:18:16.159Z,97531.80
2019-04-21T16:20:43.910Z,97531.06
2019-04-21T16:23:10.936Z,97533.06
2019-04-21T16:25:39.015Z,97526.83
2019-04-21T16:28:05.941Z,97530.91
2019-04-21T16:30:34.073Z,97521.27
2019-04-21T16:33:01.959Z,97518.19
2019-04-21T16:35:29.550Z,97522.35
2019-04-21T16:37:57.872Z,97523.13
2019-04-21T16:40:25.476Z,97518.87
2019-04-21T16:42:52.527Z,97512.45
2019-04-21T16:45:19.204Z,97510.16
2019-04-21T16:47:55.990Z,97509.02
2019-04-21T16:50:23.870Z,97512.31
2019-04-21T16:52:52.137Z,97509.47
2019-04-21T16:55:19.171Z,97510.09
2019-04-21T16:57:59.602Z,97505.03
2019-04-21T17:00:29.077Z,97508.67
2019-04-21T17:02:52.468Z,97508.47
2019-04-21T17:05:22.384Z,97503.08
2019-04-21T17:07:53.086Z,97506.70
2019-04-21T17:10:20.519Z,97500.41
2019-04-21T17:12:47.985Z,97500.66
2019-04-21T17:15:32.326Z,97507.22
2019-04-21T17:18:06.435Z,97499.02
2019-04-21T17:22:46.183Z,97504.28
2019-04-21T17:25:16.081Z,97496.27
2019-04-21T17:27:47.276Z,97501.10
2019-04-21T17:30:16.622Z,97505.51
2019-04-21T17:32:48.431Z,97498.02
2019-04-21T17:35:12.577Z,97498.66
2019-04-21T17:37:42.364Z,97502.46
2019-04-21T17:40:13.450Z,97500.66
2019-04-21T17:42:48.875Z,97502.83
2019-04-21T17:45:11.342Z,97507.46
2019-04-21T17:47:48.222Z,97513.41
2019-04-21T17:50:07.794Z,97518.24
2019-04-21T17:52:45.127Z,97516.37
2019-04-21T17:55:16.830Z,97517.17
2019-04-21T17:57:57.053Z,97523.64
2019-04-21T18:00:41.442Z,97527.42
2019-04-21T18:03:01.854Z,97527.98
2019-04-21T18:05:30.407Z,97524.50
2019-04-21T18:07:51.450Z,97530.66
2019-04-21T18:10:19.207Z,97534.68
2019-04-21T18:12:45.895Z,97535.47
2019-04-21T18:15:21.777Z,97538.41
2019-04-21T18:17:36.578Z,97542.96
2019-04-21T18:20:07.872Z,97544.23
2019-04-21T18:22:39.531Z,97544.70
2019-04-21T18:25:10.533Z,97544.38
2019-04-21T18:27:34.492Z,97543.70
2019-04-21T18:30:06.427Z,97544.70
2019-04-21T18:32:39.725Z,97551.85
2019-04-21T18:35:07.039Z,97554.97
2019-04-21T18:40:21.512Z,97567.42
2019-04-21T18:43:04.440Z,97564.06
2019-04-21T18:47:53.918Z,97572.20
2019-04-21T18:52:55.579Z,97573.37
2019-04-21T18:55:16.333Z,97575.83
2019-04-21T18:57:41.524Z,97572.70
2019-04-21T19:00:11.554Z,97577.98
2019-04-21T19:05:15.494Z,97578.13
2019-04-21T19:07:59.841Z,97582.75
2019-04-21T19:10:29.582Z,97584.30
2019-04-21T19:13:23.167Z,97585.53
2019-04-21T19:15:27.250Z,97590.08
2019-04-21T19:18:28.294Z,97586.88
2019-04-21T19:20:26.015Z,97590.57
2019-04-21T19:22:52.438Z,97587.67
2019-04-21T19:25:23.894Z,97580.34
2019-04-21T19:27:48.802Z,97581.88
2019-04-21T19:30:30.074Z,97591.51
2019-04-21T19:32:49.711Z,97590.56
2019-04-21T19:35:02.381Z,97591.09
2019-04-21T19:37:38.864Z,97596.17
2019-04-21T19:40:09.613Z,97593.78
2019-04-21T19:42:37.965Z,97598.73
2019-04-21T19:45:10.702Z,97594.55
2019-04-21T19:47:46.026Z,97597.86
2019-04-21T19:50:10.741Z,97597.17
2019-04-21T19:52:31.988Z,97605.41
2019-04-21T19:54:50.620Z,97599.16
2019-04-21T19:57:16.915Z,97603.95
2019-04-21T19:59:48.459Z,97607.91
2019-04-21T20:02:14.193Z,97609.19
2019-04-21T20:04:50.318Z,97614.47
2019-04-21T20:07:22.883Z,97609.61
2019-04-21T20:09:56.579Z,97607.03
2019-04-21T20:12:34.262Z,97614.50
2019-04-21T20:15:00.684Z,97613.64
2019-04-21T20:17:13.663Z,97612.56
2019-04-21T20:19:32.416Z,97613.53
2019-04-21T20:22:00.626Z,97609.01
2019-04-21T20:24:31.688Z,97614.22
2019-04-21T20:27:03.591Z,97610.80
2019-04-21T20:29:47.077Z,97610.05
2019-04-21T20:32:20.040Z,97602.81
2019-04-21T20:34:38.676Z,97605.80
2019-04-21T20:37:15.015Z,97601.22
2019-04-21T20:39:28.332Z,97598.09
2019-04-21T20:42:16.634Z,97595.14
2019-04-21T20:44:48.354Z,97596.16
2019-04-21T20:47:16.610Z,97598.72
2019-04-21T20:49:41.518Z,97594.44
2019-04-21T20:52:23.897Z,97591.02
2019-04-21T20:54:49.382Z,97593.36
2019-04-21T20:57:24.119Z,97587.63
2019-04-21T20:59:43.947Z,97587.84
2019-04-21T21:04:56.896Z,97601.20
2019-04-21T21:07:50.620Z,97593.84
2019-04-21T21:10:07.282Z,97595.17
2019-04-21T21:14:57.768Z,97594.30
2019-04-21T21:20:02.692Z,97592.66
2019-04-21T21:22:27.910Z,97593.99
2019-04-21T21:24:57.113Z,97589.33
2019-04-21T21:27:26.751Z,97584.25
2019-04-21T21:29:56.620Z,97582.56
2019-04-21T21:32:32.122Z,97591.94
2019-04-21T21:34:59.645Z,97591.64
2019-04-21T21:37:32.291Z,97585.66
2019-04-21T21:40:04.098Z,97591.66
2019-04-21T21:42:11.828Z,97580.80
2019-04-21T21:44:40.764Z,97574.16
2019-04-21T21:47:25.304Z,97577.17
2019-04-21T21:49:52.701Z,97571.83
2019-04-21T21:52:18.274Z,97571.06
2019-04-21T21:54:37.960Z,97565.20
2019-04-21T21:57:08.582Z,97564.27
2019-04-21T21:59:38.274Z,97563.45
2019-04-21T22:02:09.012Z,97556.73
2019-04-21T22:04:44.463Z,97564.85
2019-04-21T22:07:12.387Z,97561.14
2019-04-21T22:09:36.503Z,97557.77
2019-04-21T22:12:06.595Z,97555.98
2019-04-21T22:14:41.071Z,97553.92
2019-04-21T22:17:20.037Z,97553.83
2019-04-21T22:20:01.849Z,97551.84
2019-04-21T22:22:18.009Z,97549.38
2019-04-21T22:24:46.960Z,97553.75
2019-04-21T22:27:03.166Z,97550.38
2019-04-21T22:29:36.335Z,97550.70
2019-04-21T22:32:07.836Z,97551.45
2019-04-21T22:34:34.290Z,97549.58
2019-04-21T22:37:14.323Z,97543.29
2019-04-21T22:39:44.718Z,97539.20
2019-04-21T22:42:05.806Z,97537.13
2019-04-21T22:44:22.797Z,97543.90
2019-04-21T22:46:58.404Z,97533.04
2019-04-21T22:49:19.946Z,97530.73
2019-04-21T22:51:50.044Z,97533.85
2019-04-21T22:54:22.827Z,97527.17
2019-04-21T22:56:53.039Z,97518.19
2019-04-21T22:59:20.049Z,97534.58
2019-04-21T23:01:47.452Z,97531.80
2019-04-21T23:04:11.989Z,97531.14
2019-04-21T23:06:40.901Z,97534.48
2019-04-21T23:09:08.800Z,97536.23
2019-04-21T23:11:43.675Z,97526.92
2019-04-21T23:14:09.688Z,97523.53
2019-04-21T23:16:36.257Z,97527.59
2019-04-21T23:21:55.455Z,97517.84
2019-04-21T23:24:26.546Z,97522.99
2019-04-21T23:26:49.310Z,97521.29
2019-04-21T23:29:17.343Z,97520.45
2019-04-21T23:31:52.129Z,97519.69
2019-04-21T23:34:00.086Z,97510.23
2019-04-21T23:36:31.365Z,97509.70
2019-04-21T23:38:58.207Z,97509.57
2019-04-21T23:41:26.024Z,97507.25
2019-04-21T23:44:00.369Z,97504.73
2019-04-21T23:46:26.746Z,97498.31
2019-04-21T23:49:07.087Z,97493.46
2019-04-21T23:51:31.404Z,97491.13
2019-04-21T23:53:49.159Z,97485.02
2019-04-21T23:56:23.195Z,97485.44
2019-04-21T23:58:51.955Z,97480.15
